Bellevue, NE (68005)

6:26 PM CDT on June 28, 2017 (GMT -0500)
Olde Towne | | Change Station
Active Advisory: Tornado Watch Active Notice: Public Information Statement

Elev 1050 ft 41.13 °N, 95.89 °W | Updated 41 days ago

Clear
Clear
61.0 °F
Feels Like 61.0 °F
N
0.0
Wind Variable Wind from North
Gusts 0.0 mph

Today
High -- | Low -- °F
--% Chance of Precip.
Yesterday
High -- | Low -- °F
Precip. -- in
Pressure 29.62 in
Visibility 10.0 miles
Clouds Clear
Dew Point 61 °F
Humidity 99%
Rainfall in
Snow Depth Not available.
5:53 AM 9:00 PM
Waxing Crescent, 29% visible
METAR KOFF 282256Z AUTO 26009KT 10SM CLR 32/20 A2963 RMK AO2 SLP029 T03210197
Pressure 29.62 in
Visibility 10.0 miles
Clouds Clear
Dew Point 61 °F
Humidity 99%
Rainfall in
Snow Depth Not available.
5:53 AM 9:00 PM
Waxing Crescent, 29% visible
METAR KOFF 282256Z AUTO 26009KT 10SM CLR 32/20 A2963 RMK AO2 SLP029 T03210197

Get Your Daily Forecast Email!

Thanks for signing up!

Be on the lookout for a verification email in your inbox.

You'll start receiving severe weather alerts in your inbox..

×

10-Day Weather Forecast

Almanac

Astronomy

Jun. 28, 2017 Rise Set
Actual Time
Civil Twilight
Nautical Twilight
Astronomical Twilight
Moon
Length of Visible Light
Length of Day
Tomorrow will be .
, % of the Moon is Illuminated

Today's Extremes

State Highs State Lows

Community

WunderPhotos

Category 6

Welcome to Category 6. This is the collective home for Weather Underground's featured writeups by Dr. Jeff Masters (right), Bob Henson (left), Chris Burt, and other regular contributors.

Nearby

Air Quality

  Air Quality AQ Index Pollutant
Not available.

Snow Depth

Station Depth Elevation

Earthquake Activity

City Distance Mag. Time & Date
Minimum magnitude displayed is 2.5.

Coastal Water Temperatures

Place Temperature

Stations

Nearby Weather Stations

Station Location Temp. Windchill Dew Point Humidity Wind Precip. Elev Updated Type
                   

Watches & Warnings

Tornado Watch
Issued: 6:03 PM CDT Jun. 28, 2017 – National Weather Service

Tornado Watch 375 remains in effect until 1000 PM CDT for the
following locations

NE
. Nebraska counties included are

Cass Douglas Nemaha
Otoe Richardson Sarpy